createdAt,value
2022-08-19T00:02:17.731Z,4.40
2022-08-19T00:07:17.819Z,2.90
2022-08-19T00:09:45.767Z,3.85
2022-08-19T00:17:10.470Z,2.45
2022-08-19T00:19:39.961Z,3.58
2022-08-19T00:22:09.566Z,4.47
2022-08-19T00:24:38.927Z,3.90
2022-08-19T00:27:26.511Z,4.57
2022-08-19T00:29:54.898Z,3.42
2022-08-19T00:32:23.895Z,3.63
2022-08-19T00:34:54.395Z,2.92
2022-08-19T00:37:24.098Z,4.72
2022-08-19T00:39:52.333Z,3.00
2022-08-19T00:42:22.011Z,3.40
2022-08-19T00:44:50.224Z,3.40
2022-08-19T00:47:18.038Z,2.85
2022-08-19T00:49:54.483Z,3.08
2022-08-19T00:52:32.245Z,3.20
2022-08-19T00:55:01.015Z,2.28
2022-08-19T00:57:33.564Z,2.88
2022-08-19T01:00:03.561Z,2.75
2022-08-19T01:02:33.835Z,3.33
2022-08-19T01:05:05.610Z,3.20
2022-08-19T01:07:38.248Z,3.25
2022-08-19T01:10:17.302Z,3.08
2022-08-19T01:12:46.192Z,2.30
2022-08-19T01:15:19.796Z,2.97
2022-08-19T01:17:48.705Z,3.65
2022-08-19T01:20:21.692Z,2.53
2022-08-19T01:22:55.703Z,2.53
2022-08-19T01:25:51.947Z,2.80
2022-08-19T01:28:34.262Z,2.47
2022-08-19T01:31:27.409Z,2.70
2022-08-19T01:36:48.303Z,2.22
2022-08-19T01:39:23.317Z,2.53
2022-08-19T01:41:53.375Z,4.18
2022-08-19T01:44:24.918Z,3.08
2022-08-19T01:46:52.990Z,2.85
2022-08-19T01:49:23.274Z,3.22
2022-08-19T01:51:51.901Z,3.65
2022-08-19T01:54:23.174Z,3.40
2022-08-19T01:57:02.790Z,3.25
2022-08-19T01:59:31.527Z,3.72
2022-08-19T02:01:59.141Z,2.80
2022-08-19T02:04:27.269Z,3.03
2022-08-19T02:06:55.486Z,3.20
2022-08-19T02:11:50.673Z,2.75
2022-08-19T02:14:18.637Z,3.75
2022-08-19T02:19:14.144Z,2.78
2022-08-19T02:21:41.924Z,4.57
2022-08-19T02:24:09.685Z,2.85
2022-08-19T02:26:37.530Z,3.38
2022-08-19T02:29:05.343Z,2.90
2022-08-19T02:31:33.323Z,2.80
2022-08-19T02:34:00.983Z,2.72
2022-08-19T02:36:29.111Z,3.00
2022-08-19T02:38:58.019Z,2.72
2022-08-19T02:41:33.737Z,3.33
2022-08-19T02:44:28.942Z,3.28
2022-08-19T02:46:51.849Z,3.25
2022-08-19T02:49:20.785Z,3.13
2022-08-19T02:51:48.704Z,2.95
2022-08-19T02:54:16.889Z,2.80
2022-08-19T02:56:46.371Z,2.63
2022-08-19T02:59:14.129Z,2.88
2022-08-19T03:01:43.123Z,3.20
2022-08-19T03:04:14.225Z,2.80
2022-08-19T03:06:44.227Z,2.80
2022-08-19T03:09:12.641Z,3.70
2022-08-19T03:11:41.160Z,3.30
2022-08-19T03:14:10.038Z,3.25
2022-08-19T03:16:48.364Z,3.20
2022-08-19T03:19:18.963Z,2.97
2022-08-19T03:21:47.156Z,4.00
2022-08-19T03:24:16.423Z,3.95
2022-08-19T03:26:47.491Z,4.03
2022-08-19T03:29:16.295Z,3.38
2022-08-19T03:32:03.779Z,3.83
2022-08-19T03:34:35.225Z,3.90
2022-08-19T03:37:07.373Z,3.40
2022-08-19T03:39:36.926Z,4.78
2022-08-19T03:42:45.452Z,3.42
2022-08-19T03:44:53.587Z,3.63
2022-08-19T03:47:21.624Z,4.15
2022-08-19T03:52:16.625Z,3.92
2022-08-19T03:54:44.284Z,5.32
2022-08-19T03:57:12.175Z,5.22
2022-08-19T04:04:44.356Z,5.47
2022-08-19T04:07:16.772Z,5.93
2022-08-19T04:09:45.094Z,4.45
2022-08-19T04:12:12.894Z,4.35
2022-08-19T04:14:40.781Z,3.95
2022-08-19T04:17:08.635Z,3.75
2022-08-19T04:19:37.289Z,4.22
2022-08-19T04:22:05.607Z,4.07
2022-08-19T04:24:34.423Z,3.63
2022-08-19T04:27:03.719Z,3.67
2022-08-19T04:29:31.474Z,3.40
2022-08-19T04:32:00.467Z,3.67
2022-08-19T04:35:03.262Z,3.30
2022-08-19T04:37:29.457Z,3.78
2022-08-19T04:40:25.536Z,4.22
2022-08-19T04:42:54.511Z,4.05
2022-08-19T04:45:23.081Z,3.47
2022-08-19T04:47:58.427Z,3.63
2022-08-19T04:53:09.848Z,4.43
2022-08-19T04:55:41.302Z,4.00
2022-08-19T04:58:09.080Z,3.22
2022-08-19T05:00:40.447Z,3.00
2022-08-19T05:03:08.260Z,3.28
2022-08-19T05:05:45.008Z,3.15
2022-08-19T05:08:15.174Z,3.60
2022-08-19T05:10:43.212Z,3.72
2022-08-19T05:13:11.889Z,3.30
2022-08-19T05:15:39.669Z,4.07
2022-08-19T05:18:26.278Z,3.70
2022-08-19T05:21:12.374Z,3.70
2022-08-19T05:23:40.518Z,3.78
2022-08-19T05:26:10.367Z,3.80
2022-08-19T05:28:38.034Z,4.18
2022-08-19T05:31:05.711Z,4.05
2022-08-19T05:33:33.458Z,4.80
2022-08-19T05:36:03.031Z,3.40
2022-08-19T05:38:31.097Z,3.10
2022-08-19T05:43:26.578Z,4.10
2022-08-19T05:45:54.221Z,5.78
2022-08-19T05:48:21.903Z,5.07
2022-08-19T05:50:51.264Z,5.03
2022-08-19T05:53:19.377Z,5.07
2022-08-19T05:55:47.209Z,5.60
2022-08-19T05:58:14.924Z,3.95
2022-08-19T06:00:45.240Z,4.03
2022-08-19T06:03:13.365Z,4.10
2022-08-19T06:05:46.206Z,3.30
2022-08-19T06:08:20.196Z,5.63
2022-08-19T06:10:47.945Z,4.22
2022-08-19T06:13:15.729Z,4.15
2022-08-19T06:15:45.091Z,4.10
2022-08-19T06:18:13.270Z,4.30
2022-08-19T06:20:55.393Z,3.60
2022-08-19T06:23:24.330Z,3.45
2022-08-19T06:25:52.205Z,3.83
2022-08-19T06:28:20.479Z,3.42
2022-08-19T06:30:48.315Z,3.58
2022-08-19T06:33:15.917Z,3.58
2022-08-19T06:38:16.567Z,3.90
2022-08-19T06:43:18.556Z,3.25
2022-08-19T06:45:47.816Z,3.78
2022-08-19T06:48:15.703Z,3.78
2022-08-19T06:50:46.013Z,3.20
2022-08-19T06:53:13.870Z,3.25
2022-08-19T06:55:42.537Z,3.60
2022-08-19T06:58:10.556Z,3.40
2022-08-19T07:03:08.631Z,3.33
2022-08-19T07:05:45.988Z,3.50
2022-08-19T07:08:14.911Z,3.40
2022-08-19T07:10:46.728Z,2.97
2022-08-19T07:13:14.500Z,3.83
2022-08-19T07:15:42.244Z,3.50
2022-08-19T07:18:11.725Z,3.53
2022-08-19T07:20:41.906Z,3.78
2022-08-19T07:23:15.849Z,3.95
2022-08-19T07:25:44.953Z,3.33
2022-08-19T07:28:24.230Z,3.70
2022-08-19T07:30:53.546Z,3.83
2022-08-19T07:33:21.711Z,3.53
2022-08-19T07:35:50.935Z,3.13
2022-08-19T07:38:18.759Z,3.95
2022-08-19T07:40:47.406Z,4.05
2022-08-19T07:43:17.963Z,3.03
2022-08-19T07:45:48.151Z,3.35
2022-08-19T07:48:16.282Z,3.00
2022-08-19T07:50:44.338Z,3.13
2022-08-19T07:53:13.408Z,4.07
2022-08-19T07:55:43.750Z,2.53
2022-08-19T07:58:18.305Z,3.22
2022-08-19T08:00:48.054Z,2.28
2022-08-19T08:03:18.031Z,2.42
2022-08-19T08:06:04.652Z,2.35
2022-08-19T08:08:32.571Z,2.63
2022-08-19T08:11:01.235Z,2.88
2022-08-19T08:13:29.353Z,3.38
2022-08-19T08:15:58.241Z,3.30
2022-08-19T08:18:27.869Z,3.05
2022-08-19T08:20:59.498Z,2.55
2022-08-19T08:23:27.462Z,2.70
2022-08-19T08:25:57.887Z,2.70
2022-08-19T08:28:29.575Z,3.15
2022-08-19T08:30:58.491Z,3.20
2022-08-19T08:33:34.554Z,2.92
2022-08-19T08:36:07.431Z,3.03
2022-08-19T08:38:43.010Z,2.60
2022-08-19T08:41:20.902Z,2.67
2022-08-19T08:46:31.645Z,2.72
2022-08-19T08:49:00.026Z,3.03
2022-08-19T08:51:35.377Z,3.28
2022-08-19T08:54:12.942Z,2.95
2022-08-19T08:56:44.202Z,2.85
2022-08-19T08:59:23.179Z,2.00
2022-08-19T09:01:51.122Z,2.85
2022-08-19T09:07:18.569Z,2.53
2022-08-19T09:10:19.704Z,2.97
2022-08-19T09:13:01.513Z,2.00
2022-08-19T09:15:58.466Z,2.42
2022-08-19T09:18:26.260Z,3.22
2022-08-19T09:20:58.079Z,2.95
2022-08-19T09:23:27.101Z,2.25
2022-08-19T09:25:55.099Z,2.70
2022-08-19T09:28:27.058Z,1.90
2022-08-19T09:30:55.310Z,2.47
2022-08-19T09:33:23.497Z,2.30
2022-08-19T09:35:53.512Z,1.70
2022-08-19T09:38:24.653Z,2.75
2022-08-19T09:42:36.581Z,3.40
2022-08-19T09:45:10.410Z,2.22
2022-08-19T09:47:40.623Z,2.40
2022-08-19T09:50:11.447Z,2.50
2022-08-19T09:52:53.932Z,2.50
2022-08-19T09:55:31.661Z,2.03
2022-08-19T09:58:02.469Z,2.60
2022-08-19T10:00:32.070Z,1.73
2022-08-19T10:03:00.170Z,2.50
2022-08-19T10:05:48.714Z,2.38
2022-08-19T10:08:26.757Z,1.77
2022-08-19T10:10:56.022Z,1.25
2022-08-19T10:13:27.214Z,1.85
2022-08-19T10:15:58.220Z,1.70
2022-08-19T10:18:26.509Z,1.83
2022-08-19T10:21:12.297Z,2.75
2022-08-19T10:23:46.237Z,2.38
2022-08-19T10:26:21.227Z,2.85
2022-08-19T10:28:50.407Z,2.42
2022-08-19T10:31:22.506Z,2.80
2022-08-19T10:34:17.545Z,2.10
2022-08-19T10:36:56.508Z,3.03
2022-08-19T10:39:41.186Z,2.83
2022-08-19T10:42:11.775Z,2.47
2022-08-19T10:44:40.491Z,1.90
2022-08-19T10:47:17.677Z,1.60
2022-08-19T10:50:12.885Z,2.58
2022-08-19T10:52:49.789Z,1.80
2022-08-19T10:58:23.520Z,1.92
2022-08-19T11:00:57.181Z,3.05
2022-08-19T11:03:26.356Z,2.42
2022-08-19T11:06:06.675Z,1.90
2022-08-19T11:08:36.077Z,2.15
2022-08-19T11:11:04.625Z,2.65
2022-08-19T11:13:35.122Z,3.13
2022-08-19T11:16:08.283Z,2.13
2022-08-19T11:18:38.910Z,2.78
2022-08-19T11:21:18.275Z,2.95
2022-08-19T11:23:48.055Z,2.95
2022-08-19T11:26:17.108Z,3.30
2022-08-19T11:28:45.038Z,2.70
2022-08-19T11:33:47.658Z,2.88
2022-08-19T11:36:17.314Z,2.13
2022-08-19T11:38:46.306Z,1.70
2022-08-19T11:41:14.171Z,2.50
2022-08-19T11:46:13.114Z,2.38
2022-08-19T11:48:41.775Z,2.20
2022-08-19T11:51:12.613Z,1.50
2022-08-19T11:53:41.288Z,2.88
2022-08-19T11:56:10.192Z,2.70
2022-08-19T11:58:38.687Z,2.00
2022-08-19T12:01:08.863Z,2.40
2022-08-19T12:03:37.031Z,2.20
2022-08-19T12:06:12.965Z,1.10
2022-08-19T12:08:43.561Z,1.60
2022-08-19T12:11:12.891Z,1.67
2022-08-19T12:13:41.282Z,2.00
2022-08-19T12:16:13.372Z,1.48
2022-08-19T12:18:47.702Z,2.15
2022-08-19T12:21:17.890Z,2.00
2022-08-19T12:23:46.637Z,1.70
2022-08-19T12:26:14.771Z,3.13
2022-08-19T12:28:43.131Z,1.95
2022-08-19T12:31:15.149Z,1.90
2022-08-19T12:33:44.471Z,2.67
2022-08-19T12:36:14.822Z,2.05
2022-08-19T12:38:43.026Z,1.88
2022-08-19T12:41:14.284Z,1.77
2022-08-19T12:43:42.966Z,1.63
2022-08-19T12:46:11.574Z,3.20
2022-08-19T12:48:43.061Z,2.50
2022-08-19T12:51:14.403Z,2.10
2022-08-19T12:53:42.894Z,1.48
2022-08-19T12:56:12.829Z,1.95
2022-08-19T12:58:48.818Z,1.83
2022-08-19T13:01:22.005Z,1.95
2022-08-19T13:03:54.606Z,2.38
2022-08-19T13:06:22.554Z,2.42
2022-08-19T13:08:50.396Z,3.05
2022-08-19T13:11:20.838Z,2.85
2022-08-19T13:13:51.437Z,2.42
2022-08-19T13:16:21.151Z,2.10
2022-08-19T13:18:49.480Z,1.50
2022-08-19T13:21:17.330Z,3.22
2022-08-19T13:23:49.914Z,1.65
2022-08-19T13:26:18.729Z,4.05
2022-08-19T13:29:05.546Z,2.00
2022-08-19T13:31:55.027Z,1.50
2022-08-19T13:34:35.025Z,1.40
2022-08-19T13:37:04.925Z,1.75
2022-08-19T13:39:34.005Z,1.48
2022-08-19T13:42:02.581Z,1.55
2022-08-19T13:44:30.469Z,1.73
2022-08-19T13:47:11.634Z,2.78
2022-08-19T13:49:39.450Z,2.15
2022-08-19T13:54:34.834Z,2.10
2022-08-19T13:59:30.300Z,2.35
2022-08-19T14:02:01.879Z,1.55
2022-08-19T14:04:29.782Z,2.28
2022-08-19T14:06:57.486Z,1.88
2022-08-19T14:11:53.869Z,4.53
2022-08-19T14:16:49.463Z,1.00
2022-08-19T14:19:17.688Z,0.90
2022-08-19T14:21:45.362Z,1.20
2022-08-19T14:24:13.281Z,1.45
2022-08-19T14:34:03.614Z,1.52
2022-08-19T14:39:07.168Z,1.08
2022-08-19T14:41:36.081Z,1.50
2022-08-19T14:44:03.940Z,2.05
2022-08-19T14:46:31.661Z,1.58
2022-08-19T14:49:00.198Z,1.30
2022-08-19T14:51:28.070Z,2.28
2022-08-19T14:56:27.836Z,1.73
2022-08-19T14:59:00.272Z,3.63
2022-08-19T15:01:28.849Z,1.20
2022-08-19T15:03:56.789Z,1.40
2022-08-19T15:06:25.764Z,2.17
2022-08-19T15:08:54.366Z,2.25
2022-08-19T15:11:25.097Z,3.33
2022-08-19T15:13:52.798Z,1.02
2022-08-19T15:18:51.394Z,1.70
2022-08-19T15:21:25.036Z,1.30
2022-08-19T15:23:58.046Z,2.20
2022-08-19T15:26:29.230Z,1.83
2022-08-19T15:28:57.104Z,1.98
2022-08-19T15:31:27.938Z,1.23
2022-08-19T15:33:58.837Z,2.25
2022-08-19T15:36:28.155Z,1.60
2022-08-19T15:38:57.590Z,1.58
2022-08-19T15:41:29.085Z,1.73
2022-08-19T15:44:10.648Z,1.85
2022-08-19T15:46:41.956Z,1.05
2022-08-19T15:49:12.274Z,1.73
2022-08-19T15:51:43.085Z,1.50
2022-08-19T15:54:15.306Z,1.40
2022-08-19T15:57:12.481Z,1.52
2022-08-19T16:00:03.082Z,1.40
2022-08-19T16:02:53.714Z,1.38
2022-08-19T16:05:44.101Z,1.33
2022-08-19T16:10:36.037Z,1.30
2022-08-19T16:13:06.100Z,1.20
2022-08-19T16:15:34.396Z,1.35
2022-08-19T16:18:05.341Z,1.40
2022-08-19T16:20:33.235Z,1.10
2022-08-19T16:23:05.182Z,1.20
2022-08-19T16:25:33.066Z,1.35
2022-08-19T16:28:07.586Z,1.15
2022-08-19T16:30:40.771Z,1.30
2022-08-19T16:33:09.646Z,1.30
2022-08-19T16:35:37.829Z,1.00
2022-08-19T16:38:07.476Z,1.55
2022-08-19T16:40:35.700Z,1.33
2022-08-19T16:43:03.773Z,1.40
2022-08-19T16:45:32.149Z,1.20
2022-08-19T16:47:59.853Z,1.40
2022-08-19T16:53:17.022Z,1.20
2022-08-19T16:55:46.921Z,1.67
2022-08-19T16:58:14.757Z,1.40
2022-08-19T17:05:48.358Z,1.30
2022-08-19T17:08:17.339Z,1.60
2022-08-19T17:11:07.885Z,1.98
2022-08-19T17:13:34.523Z,1.25
2022-08-19T17:16:02.578Z,1.17
2022-08-19T17:18:32.708Z,1.63
2022-08-19T17:21:01.899Z,2.15
2022-08-19T17:23:42.314Z,1.45
2022-08-19T17:26:17.068Z,2.15
2022-08-19T17:28:51.587Z,1.77
2022-08-19T17:31:23.209Z,2.17
2022-08-19T17:33:51.907Z,1.67
2022-08-19T17:36:23.589Z,1.63
2022-08-19T17:38:53.224Z,1.83
2022-08-19T17:41:21.617Z,1.90
2022-08-19T17:43:49.255Z,2.00
2022-08-19T17:46:20.574Z,1.42
2022-08-19T17:48:53.038Z,1.45
2022-08-19T17:51:33.338Z,2.10
2022-08-19T17:54:01.289Z,1.80
2022-08-19T17:59:01.600Z,1.73
2022-08-19T18:01:43.965Z,1.55
2022-08-19T18:04:19.871Z,1.85
2022-08-19T18:06:53.825Z,1.70
2022-08-19T18:09:27.274Z,1.42
2022-08-19T18:11:57.271Z,1.67
2022-08-19T18:14:33.245Z,1.33
2022-08-19T18:17:09.297Z,2.40
2022-08-19T18:19:43.241Z,1.88
2022-08-19T18:22:20.564Z,2.20
2022-08-19T18:24:48.579Z,1.73
2022-08-19T18:27:16.462Z,1.80
2022-08-19T18:29:45.100Z,2.30
2022-08-19T18:32:13.030Z,2.20
2022-08-19T18:37:10.522Z,1.40
2022-08-19T18:39:57.135Z,2.10
2022-08-19T18:42:43.534Z,2.30
2022-08-19T18:45:30.289Z,2.25
2022-08-19T18:48:24.220Z,1.80
2022-08-19T18:50:57.503Z,2.53
2022-08-19T18:53:26.946Z,1.88
2022-08-19T18:55:55.501Z,2.10
2022-08-19T18:58:26.634Z,1.95
2022-08-19T19:00:57.150Z,2.20
2022-08-19T19:03:28.107Z,2.17
2022-08-19T19:05:55.827Z,2.10
2022-08-19T19:08:27.233Z,2.05
2022-08-19T19:10:56.700Z,2.38
2022-08-19T19:13:24.491Z,2.40
2022-08-19T19:15:52.340Z,2.15
2022-08-19T19:18:20.092Z,2.85
2022-08-19T19:20:48.134Z,2.88
2022-08-19T19:28:24.002Z,1.95
2022-08-19T19:30:54.101Z,1.98
2022-08-19T19:33:21.938Z,1.90
2022-08-19T19:38:17.305Z,2.25
2022-08-19T19:40:45.696Z,2.03
2022-08-19T19:43:13.409Z,1.98
2022-08-19T19:45:41.359Z,2.28
2022-08-19T19:48:10.051Z,2.38
2022-08-19T19:50:37.685Z,2.03
2022-08-19T19:53:06.375Z,2.30
2022-08-19T19:55:34.048Z,2.33
2022-08-19T19:58:01.973Z,2.40
2022-08-19T20:00:30.022Z,2.15
2022-08-19T20:02:58.160Z,1.70
2022-08-19T20:08:13.835Z,2.10
2022-08-19T20:10:43.271Z,2.13
2022-08-19T20:13:13.614Z,1.85
2022-08-19T20:15:43.701Z,2.13
2022-08-19T20:18:14.608Z,2.17
2022-08-19T20:20:43.998Z,2.08
2022-08-19T20:23:12.015Z,2.30
2022-08-19T20:28:08.934Z,2.00
2022-08-19T20:30:39.080Z,2.20
2022-08-19T20:33:14.715Z,1.98
2022-08-19T20:35:44.320Z,1.83
2022-08-19T20:38:12.520Z,2.42
2022-08-19T20:40:41.239Z,2.17
2022-08-19T20:43:11.406Z,1.73
2022-08-19T20:45:41.971Z,2.47
2022-08-19T20:48:12.576Z,1.83
2022-08-19T20:50:40.350Z,2.13
2022-08-19T20:53:14.425Z,1.98
2022-08-19T20:55:49.144Z,2.25
2022-08-19T20:58:19.623Z,2.13
2022-08-19T21:00:48.266Z,2.00
2022-08-19T21:03:22.003Z,2.10
2022-08-19T21:05:50.156Z,1.95
2022-08-19T21:08:20.818Z,2.60
2022-08-19T21:10:50.233Z,2.90
2022-08-19T21:13:20.100Z,2.53
2022-08-19T21:15:48.234Z,2.65
2022-08-19T21:18:18.439Z,3.10
2022-08-19T21:20:47.358Z,3.53
2022-08-19T21:23:21.741Z,2.80
2022-08-19T21:25:54.517Z,3.40
2022-08-19T21:28:29.886Z,3.75
2022-08-19T21:31:06.321Z,3.55
2022-08-19T21:33:34.543Z,3.92
2022-08-19T21:38:31.371Z,3.13
2022-08-19T21:40:59.506Z,2.72
2022-08-19T21:43:35.167Z,3.10
2022-08-19T21:46:02.876Z,3.97
2022-08-19T21:48:30.674Z,2.40
2022-08-19T21:50:58.736Z,2.63
2022-08-19T21:53:31.351Z,1.95
2022-08-19T21:56:00.977Z,2.05
2022-08-19T21:58:30.085Z,2.50
2022-08-19T22:01:06.065Z,2.00
2022-08-19T22:03:35.995Z,3.47
2022-08-19T22:06:03.889Z,2.50
2022-08-19T22:08:33.865Z,2.45
2022-08-19T22:11:03.716Z,2.10
2022-08-19T22:13:40.056Z,2.30
2022-08-19T22:16:09.629Z,2.28
2022-08-19T22:18:37.337Z,1.85
2022-08-19T22:21:11.304Z,2.65
2022-08-19T22:23:44.329Z,2.20
2022-08-19T22:26:14.065Z,2.50
2022-08-19T22:28:42.699Z,2.72
2022-08-19T22:31:11.447Z,2.10
2022-08-19T22:33:40.435Z,2.45
2022-08-19T22:36:08.358Z,2.60
2022-08-19T22:38:37.445Z,2.80
2022-08-19T22:41:07.662Z,3.35
2022-08-19T22:43:36.925Z,2.30
2022-08-19T22:46:06.584Z,2.25
2022-08-19T22:48:46.218Z,2.42
2022-08-19T22:51:33.338Z,3.10
2022-08-19T22:54:01.852Z,3.22
2022-08-19T22:56:30.619Z,3.13
2022-08-19T22:58:58.451Z,2.42
2022-08-19T23:01:30.215Z,3.30
2022-08-19T23:03:59.808Z,2.45
2022-08-19T23:06:33.149Z,2.45
2022-08-19T23:09:04.755Z,2.78
2022-08-19T23:11:41.695Z,2.28
2022-08-19T23:14:12.573Z,2.85
2022-08-19T23:16:41.858Z,2.88
2022-08-19T23:19:10.458Z,2.70
2022-08-19T23:21:42.551Z,6.13
2022-08-19T23:24:11.409Z,2.60
2022-08-19T23:26:59.480Z,2.50
2022-08-19T23:29:45.687Z,3.03
2022-08-19T23:32:16.196Z,2.78
2022-08-19T23:34:44.227Z,3.15
2022-08-19T23:37:12.217Z,2.72
2022-08-19T23:39:39.830Z,2.80
2022-08-19T23:42:11.491Z,2.55
2022-08-19T23:44:51.608Z,2.60
2022-08-19T23:47:20.935Z,2.90
2022-08-19T23:49:49.030Z,2.78
2022-08-19T23:52:16.897Z,2.90
2022-08-19T23:54:44.621Z,3.10
2022-08-19T23:57:13.470Z,2.55
2022-08-19T23:59:45.574Z,3.25
